sensor_id;sensor_type;location;lat;lon;timestamp;P1;durP1;ratioP1;P2;durP2;ratioP2
12867;SDS011;33517;49.866;8.320;2024-01-30T00:00:18;3.55;;;2.90;;
12867;SDS011;33517;49.866;8.320;2024-01-30T00:03:11;3.40;;;2.67;;
12867;SDS011;33517;49.866;8.320;2024-01-30T00:06:03;2.97;;;1.85;;
12867;SDS011;33517;49.866;8.320;2024-01-30T00:08:55;3.90;;;2.60;;
12867;SDS011;33517;49.866;8.320;2024-01-30T00:11:47;10.50;;;2.90;;
12867;SDS011;33517;49.866;8.320;2024-01-30T00:14:41;4.10;;;3.35;;
12867;SDS011;33517;49.866;8.320;2024-01-30T00:17:34;4.18;;;2.97;;
12867;SDS011;33517;49.866;8.320;2024-01-30T00:20:27;4.88;;;3.58;;
12867;SDS011;33517;49.866;8.320;2024-01-30T00:23:18;3.47;;;2.88;;
12867;SDS011;33517;49.866;8.320;2024-01-30T00:26:10;4.00;;;2.60;;
12867;SDS011;33517;49.866;8.320;2024-01-30T00:29:02;2.63;;;2.42;;
12867;SDS011;33517;49.866;8.320;2024-01-30T00:31:54;8.13;;;3.25;;
12867;SDS011;33517;49.866;8.320;2024-01-30T00:34:47;4.72;;;3.45;;
12867;SDS011;33517;49.866;8.320;2024-01-30T00:37:39;8.80;;;2.83;;
12867;SDS011;33517;49.866;8.320;2024-01-30T00:40:31;2.75;;;2.25;;
12867;SDS011;33517;49.866;8.320;2024-01-30T00:43:23;13.93;;;2.60;;
12867;SDS011;33517;49.866;8.320;2024-01-30T00:46:15;3.50;;;2.45;;
12867;SDS011;33517;49.866;8.320;2024-01-30T00:49:07;3.95;;;2.97;;
12867;SDS011;33517;49.866;8.320;2024-01-30T00:52:00;2.58;;;2.03;;
12867;SDS011;33517;49.866;8.320;2024-01-30T00:54:52;3.90;;;1.58;;
12867;SDS011;33517;49.866;8.320;2024-01-30T00:57:44;3.55;;;2.38;;
12867;SDS011;33517;49.866;8.320;2024-01-30T01:00:37;25.85;;;2.03;;
12867;SDS011;33517;49.866;8.320;2024-01-30T01:03:30;6.18;;;3.72;;
12867;SDS011;33517;49.866;8.320;2024-01-30T01:06:22;5.07;;;2.53;;
12867;SDS011;33517;49.866;8.320;2024-01-30T01:09:15;5.32;;;2.45;;
12867;SDS011;33517;49.866;8.320;2024-01-30T01:12:07;4.18;;;2.95;;
12867;SDS011;33517;49.866;8.320;2024-01-30T01:14:58;4.18;;;3.15;;
12867;SDS011;33517;49.866;8.320;2024-01-30T01:17:50;4.25;;;2.53;;
12867;SDS011;33517;49.866;8.320;2024-01-30T01:20:42;3.50;;;3.17;;
12867;SDS011;33517;49.866;8.320;2024-01-30T01:23:34;2.65;;;2.10;;
12867;SDS011;33517;49.866;8.320;2024-01-30T01:26:27;3.03;;;2.63;;
12867;SDS011;33517;49.866;8.320;2024-01-30T01:29:19;2.60;;;2.40;;
12867;SDS011;33517;49.866;8.320;2024-01-30T01:32:18;2.45;;;2.20;;
12867;SDS011;33517;49.866;8.320;2024-01-30T01:35:11;2.38;;;1.67;;
12867;SDS011;33517;49.866;8.320;2024-01-30T01:38:03;2.80;;;2.17;;
12867;SDS011;33517;49.866;8.320;2024-01-30T01:40:55;3.00;;;2.78;;
12867;SDS011;33517;49.866;8.320;2024-01-30T01:43:48;2.70;;;2.53;;
12867;SDS011;33517;49.866;8.320;2024-01-30T01:46:40;2.17;;;1.98;;
12867;SDS011;33517;49.866;8.320;2024-01-30T01:49:32;3.03;;;2.67;;
12867;SDS011;33517;49.866;8.320;2024-01-30T01:52:24;3.00;;;2.10;;
12867;SDS011;33517;49.866;8.320;2024-01-30T01:55:16;6.78;;;2.85;;
12867;SDS011;33517;49.866;8.320;2024-01-30T01:58:11;3.58;;;2.40;;
12867;SDS011;33517;49.866;8.320;2024-01-30T02:01:05;3.38;;;2.83;;
12867;SDS011;33517;49.866;8.320;2024-01-30T02:03:57;3.38;;;2.97;;
12867;SDS011;33517;49.866;8.320;2024-01-30T02:06:49;2.83;;;2.58;;
12867;SDS011;33517;49.866;8.320;2024-01-30T02:09:41;4.15;;;2.67;;
12867;SDS011;33517;49.866;8.320;2024-01-30T02:12:34;2.90;;;2.67;;
12867;SDS011;33517;49.866;8.320;2024-01-30T02:15:25;3.22;;;2.75;;
12867;SDS011;33517;49.866;8.320;2024-01-30T02:21:14;2.10;;;1.88;;
12867;SDS011;33517;49.866;8.320;2024-01-30T02:24:06;1.90;;;1.80;;
12867;SDS011;33517;49.866;8.320;2024-01-30T02:26:58;3.20;;;2.80;;
12867;SDS011;33517;49.866;8.320;2024-01-30T02:29:50;4.47;;;1.95;;
12867;SDS011;33517;49.866;8.320;2024-01-30T02:32:42;2.08;;;1.98;;
12867;SDS011;33517;49.866;8.320;2024-01-30T02:35:33;2.25;;;2.05;;
12867;SDS011;33517;49.866;8.320;2024-01-30T02:38:27;1.27;;;1.27;;
12867;SDS011;33517;49.866;8.320;2024-01-30T02:41:20;5.70;;;2.85;;
12867;SDS011;33517;49.866;8.320;2024-01-30T02:44:12;3.10;;;1.65;;
12867;SDS011;33517;49.866;8.320;2024-01-30T02:47:04;4.00;;;2.75;;
12867;SDS011;33517;49.866;8.320;2024-01-30T02:49:56;4.63;;;1.90;;
12867;SDS011;33517;49.866;8.320;2024-01-30T02:52:47;5.25;;;2.28;;
12867;SDS011;33517;49.866;8.320;2024-01-30T02:55:41;4.45;;;3.85;;
12867;SDS011;33517;49.866;8.320;2024-01-30T02:58:33;3.40;;;2.90;;
12867;SDS011;33517;49.866;8.320;2024-01-30T03:01:24;2.78;;;2.30;;
12867;SDS011;33517;49.866;8.320;2024-01-30T03:04:16;2.83;;;1.98;;
12867;SDS011;33517;49.866;8.320;2024-01-30T03:07:08;2.85;;;2.53;;
12867;SDS011;33517;49.866;8.320;2024-01-30T03:10:01;3.00;;;2.80;;
12867;SDS011;33517;49.866;8.320;2024-01-30T03:12:54;1.85;;;1.75;;
12867;SDS011;33517;49.866;8.320;2024-01-30T03:15:46;7.13;;;2.70;;
12867;SDS011;33517;49.866;8.320;2024-01-30T03:18:38;3.80;;;3.50;;
12867;SDS011;33517;49.866;8.320;2024-01-30T03:21:29;3.65;;;2.20;;
12867;SDS011;33517;49.866;8.320;2024-01-30T03:24:21;2.22;;;2.05;;
12867;SDS011;33517;49.866;8.320;2024-01-30T03:27:13;4.35;;;2.35;;
12867;SDS011;33517;49.866;8.320;2024-01-30T03:30:07;3.63;;;2.47;;
12867;SDS011;33517;49.866;8.320;2024-01-30T03:33:00;3.95;;;2.67;;
12867;SDS011;33517;49.866;8.320;2024-01-30T03:35:52;7.03;;;2.75;;
12867;SDS011;33517;49.866;8.320;2024-01-30T03:38:44;5.30;;;3.00;;
12867;SDS011;33517;49.866;8.320;2024-01-30T03:41:36;2.63;;;1.95;;
12867;SDS011;33517;49.866;8.320;2024-01-30T03:44:28;2.50;;;2.30;;
12867;SDS011;33517;49.866;8.320;2024-01-30T03:47:21;2.35;;;2.03;;
12867;SDS011;33517;49.866;8.320;2024-01-30T03:50:13;4.03;;;2.90;;
12867;SDS011;33517;49.866;8.320;2024-01-30T03:53:05;2.00;;;1.90;;
12867;SDS011;33517;49.866;8.320;2024-01-30T03:55:57;3.42;;;2.55;;
12867;SDS011;33517;49.866;8.320;2024-01-30T03:58:49;2.50;;;2.30;;
12867;SDS011;33517;49.866;8.320;2024-01-30T04:01:40;2.67;;;1.85;;
12867;SDS011;33517;49.866;8.320;2024-01-30T04:04:34;18.90;;;2.95;;
12867;SDS011;33517;49.866;8.320;2024-01-30T04:07:26;4.65;;;3.53;;
12867;SDS011;33517;49.866;8.320;2024-01-30T04:10:17;3.25;;;2.42;;
12867;SDS011;33517;49.866;8.320;2024-01-30T04:13:09;2.45;;;2.25;;
12867;SDS011;33517;49.866;8.320;2024-01-30T04:16:01;6.28;;;3.13;;
12867;SDS011;33517;49.866;8.320;2024-01-30T04:18:54;1.83;;;1.63;;
12867;SDS011;33517;49.866;8.320;2024-01-30T04:21:47;2.78;;;2.33;;
12867;SDS011;33517;49.866;8.320;2024-01-30T04:24:39;5.22;;;2.85;;
12867;SDS011;33517;49.866;8.320;2024-01-30T04:27:31;3.75;;;3.13;;
12867;SDS011;33517;49.866;8.320;2024-01-30T04:30:23;1.67;;;1.58;;
12867;SDS011;33517;49.866;8.320;2024-01-30T04:33:15;1.35;;;1.27;;
12867;SDS011;33517;49.866;8.320;2024-01-30T04:36:08;2.75;;;2.42;;
12867;SDS011;33517;49.866;8.320;2024-01-30T04:39:02;2.25;;;1.67;;
12867;SDS011;33517;49.866;8.320;2024-01-30T04:41:55;4.20;;;2.83;;
12867;SDS011;33517;49.866;8.320;2024-01-30T04:44:47;7.40;;;3.28;;
12867;SDS011;33517;49.866;8.320;2024-01-30T04:47:38;3.13;;;2.22;;
12867;SDS011;33517;49.866;8.320;2024-01-30T04:50:30;2.67;;;1.90;;
12867;SDS011;33517;49.866;8.320;2024-01-30T04:53:22;2.63;;;2.42;;
12867;SDS011;33517;49.866;8.320;2024-01-30T04:56:15;8.20;;;2.85;;
12867;SDS011;33517;49.866;8.320;2024-01-30T04:59:07;3.75;;;2.50;;
12867;SDS011;33517;49.866;8.320;2024-01-30T05:02:00;4.25;;;3.05;;
12867;SDS011;33517;49.866;8.320;2024-01-30T05:04:51;5.13;;;2.75;;
12867;SDS011;33517;49.866;8.320;2024-01-30T05:07:43;3.03;;;2.53;;
12867;SDS011;33517;49.866;8.320;2024-01-30T05:10:35;3.60;;;2.45;;
12867;SDS011;33517;49.866;8.320;2024-01-30T05:13:29;4.20;;;2.42;;
12867;SDS011;33517;49.866;8.320;2024-01-30T05:16:21;2.70;;;2.50;;
12867;SDS011;33517;49.866;8.320;2024-01-30T05:19:13;3.08;;;2.33;;
12867;SDS011;33517;49.866;8.320;2024-01-30T05:22:05;2.25;;;1.50;;
12867;SDS011;33517;49.866;8.320;2024-01-30T05:24:57;5.50;;;3.60;;
12867;SDS011;33517;49.866;8.320;2024-01-30T05:27:49;2.22;;;2.03;;
12867;SDS011;33517;49.866;8.320;2024-01-30T05:30:42;2.05;;;1.88;;
12867;SDS011;33517;49.866;8.320;2024-01-30T05:33:34;4.30;;;2.95;;
12867;SDS011;33517;49.866;8.320;2024-01-30T05:36:26;4.95;;;3.38;;
12867;SDS011;33517;49.866;8.320;2024-01-30T05:39:18;1.98;;;1.88;;
12867;SDS011;33517;49.866;8.320;2024-01-30T05:42:10;2.13;;;1.67;;
12867;SDS011;33517;49.866;8.320;2024-01-30T05:45:02;4.88;;;2.83;;
12867;SDS011;33517;49.866;8.320;2024-01-30T05:47:57;4.63;;;3.05;;
12867;SDS011;33517;49.866;8.320;2024-01-30T05:50:49;7.40;;;3.88;;
12867;SDS011;33517;49.866;8.320;2024-01-30T05:53:40;2.50;;;2.30;;
12867;SDS011;33517;49.866;8.320;2024-01-30T05:56:32;2.70;;;2.30;;
12867;SDS011;33517;49.866;8.320;2024-01-30T05:59:24;3.50;;;2.78;;
12867;SDS011;33517;49.866;8.320;2024-01-30T06:02:16;3.90;;;1.85;;
12867;SDS011;33517;49.866;8.320;2024-01-30T06:05:09;5.68;;;3.55;;
12867;SDS011;33517;49.866;8.320;2024-01-30T06:08:02;8.68;;;3.50;;
12867;SDS011;33517;49.866;8.320;2024-01-30T06:10:54;13.00;;;3.50;;
12867;SDS011;33517;49.866;8.320;2024-01-30T06:13:46;4.68;;;2.58;;
12867;SDS011;33517;49.866;8.320;2024-01-30T06:16:37;3.28;;;2.75;;
12867;SDS011;33517;49.866;8.320;2024-01-30T06:19:29;7.70;;;2.60;;
12867;SDS011;33517;49.866;8.320;2024-01-30T06:22:23;1.05;;;1.05;;
12867;SDS011;33517;49.866;8.320;2024-01-30T06:25:14;2.28;;;2.13;;
12867;SDS011;33517;49.866;8.320;2024-01-30T06:28:07;3.45;;;2.90;;
12867;SDS011;33517;49.866;8.320;2024-01-30T06:31:00;4.07;;;3.60;;
12867;SDS011;33517;49.866;8.320;2024-01-30T06:33:52;7.65;;;2.92;;
12867;SDS011;33517;49.866;8.320;2024-01-30T06:36:44;7.32;;;3.85;;
12867;SDS011;33517;49.866;8.320;2024-01-30T06:39:37;1.95;;;1.80;;
12867;SDS011;33517;49.866;8.320;2024-01-30T06:42:29;6.25;;;3.13;;
12867;SDS011;33517;49.866;8.320;2024-01-30T06:45:21;2.13;;;1.92;;
12867;SDS011;33517;49.866;8.320;2024-01-30T06:48:13;4.40;;;2.53;;
12867;SDS011;33517;49.866;8.320;2024-01-30T06:51:05;2.70;;;2.50;;
12867;SDS011;33517;49.866;8.320;2024-01-30T06:53:57;4.47;;;3.22;;
12867;SDS011;33517;49.866;8.320;2024-01-30T06:56:50;4.93;;;3.50;;
12867;SDS011;33517;49.866;8.320;2024-01-30T06:59:42;8.85;;;3.40;;
12867;SDS011;33517;49.866;8.320;2024-01-30T07:02:34;17.40;;;3.65;;
12867;SDS011;33517;49.866;8.320;2024-01-30T07:05:26;3.03;;;2.70;;
12867;SDS011;33517;49.866;8.320;2024-01-30T07:08:18;4.13;;;3.05;;
12867;SDS011;33517;49.866;8.320;2024-01-30T07:11:11;1.52;;;1.40;;
12867;SDS011;33517;49.866;8.320;2024-01-30T07:14:11;5.45;;;2.92;;
12867;SDS011;33517;49.866;8.320;2024-01-30T07:17:03;6.68;;;3.72;;
12867;SDS011;33517;49.866;8.320;2024-01-30T07:19:56;2.17;;;2.08;;
12867;SDS011;33517;49.866;8.320;2024-01-30T07:22:48;6.85;;;2.88;;
12867;SDS011;33517;49.866;8.320;2024-01-30T07:25:40;3.25;;;2.40;;
12867;SDS011;33517;49.866;8.320;2024-01-30T07:28:32;2.67;;;2.47;;
12867;SDS011;33517;49.866;8.320;2024-01-30T07:31:26;4.53;;;2.13;;
12867;SDS011;33517;49.866;8.320;2024-01-30T07:34:17;2.55;;;2.35;;
12867;SDS011;33517;49.866;8.320;2024-01-30T07:37:09;3.13;;;2.40;;
12867;SDS011;33517;49.866;8.320;2024-01-30T07:40:03;5.45;;;3.33;;
12867;SDS011;33517;49.866;8.320;2024-01-30T07:42:57;7.45;;;3.88;;
12867;SDS011;33517;49.866;8.320;2024-01-30T07:45:48;2.95;;;2.53;;
12867;SDS011;33517;49.866;8.320;2024-01-30T07:48:42;3.00;;;2.63;;
12867;SDS011;33517;49.866;8.320;2024-01-30T07:51:33;3.83;;;3.45;;
12867;SDS011;33517;49.866;8.320;2024-01-30T07:54:25;5.78;;;3.08;;
12867;SDS011;33517;49.866;8.320;2024-01-30T08:01:27;3.70;;;2.88;;
12867;SDS011;33517;49.866;8.320;2024-01-30T08:04:20;5.38;;;3.08;;
12867;SDS011;33517;49.866;8.320;2024-01-30T08:07:12;3.35;;;2.80;;
12867;SDS011;33517;49.866;8.320;2024-01-30T08:10:04;3.30;;;2.70;;
12867;SDS011;33517;49.866;8.320;2024-01-30T08:12:57;4.80;;;3.53;;
12867;SDS011;33517;49.866;8.320;2024-01-30T08:15:48;5.63;;;3.72;;
12867;SDS011;33517;49.866;8.320;2024-01-30T08:18:40;7.40;;;5.30;;
12867;SDS011;33517;49.866;8.320;2024-01-30T08:21:34;6.95;;;5.40;;
12867;SDS011;33517;49.866;8.320;2024-01-30T08:24:26;7.93;;;5.03;;
12867;SDS011;33517;49.866;8.320;2024-01-30T08:27:19;8.65;;;4.68;;
12867;SDS011;33517;49.866;8.320;2024-01-30T08:30:11;4.25;;;3.08;;
12867;SDS011;33517;49.866;8.320;2024-01-30T08:33:03;5.05;;;3.97;;
12867;SDS011;33517;49.866;8.320;2024-01-30T08:35:55;8.35;;;4.97;;
12867;SDS011;33517;49.866;8.320;2024-01-30T08:38:48;5.40;;;3.95;;
12867;SDS011;33517;49.866;8.320;2024-01-30T08:41:40;6.55;;;3.58;;
12867;SDS011;33517;49.866;8.320;2024-01-30T08:44:32;6.28;;;4.13;;
12867;SDS011;33517;49.866;8.320;2024-01-30T08:47:24;4.72;;;3.97;;
12867;SDS011;33517;49.866;8.320;2024-01-30T08:50:16;4.18;;;3.25;;
12867;SDS011;33517;49.866;8.320;2024-01-30T08:53:08;5.53;;;4.13;;
12867;SDS011;33517;49.866;8.320;2024-01-30T08:56:01;9.82;;;3.70;;
12867;SDS011;33517;49.866;8.320;2024-01-30T08:58:53;4.88;;;3.72;;
12867;SDS011;33517;49.866;8.320;2024-01-30T09:01:45;3.53;;;3.13;;
12867;SDS011;33517;49.866;8.320;2024-01-30T09:04:38;8.25;;;3.45;;
12867;SDS011;33517;49.866;8.320;2024-01-30T09:07:30;6.70;;;4.30;;
12867;SDS011;33517;49.866;8.320;2024-01-30T09:10:22;7.88;;;3.15;;
12867;SDS011;33517;49.866;8.320;2024-01-30T09:13:15;3.70;;;2.40;;
12867;SDS011;33517;49.866;8.320;2024-01-30T09:16:07;6.97;;;4.95;;
12867;SDS011;33517;49.866;8.320;2024-01-30T09:18:59;5.88;;;3.17;;
12867;SDS011;33517;49.866;8.320;2024-01-30T09:21:51;12.63;;;5.00;;
12867;SDS011;33517;49.866;8.320;2024-01-30T09:24:42;6.47;;;4.07;;
12867;SDS011;33517;49.866;8.320;2024-01-30T09:27:34;4.25;;;3.72;;
12867;SDS011;33517;49.866;8.320;2024-01-30T09:30:28;8.13;;;5.10;;
12867;SDS011;33517;49.866;8.320;2024-01-30T09:33:19;5.45;;;3.47;;
12867;SDS011;33517;49.866;8.320;2024-01-30T09:36:12;8.63;;;5.10;;
12867;SDS011;33517;49.866;8.320;2024-01-30T09:39:05;4.88;;;3.40;;
12867;SDS011;33517;49.866;8.320;2024-01-30T09:42:00;8.95;;;5.78;;
12867;SDS011;33517;49.866;8.320;2024-01-30T09:44:56;11.18;;;6.47;;
12867;SDS011;33517;49.866;8.320;2024-01-30T09:47:49;18.38;;;7.63;;
12867;SDS011;33517;49.866;8.320;2024-01-30T09:50:41;20.40;;;8.25;;
12867;SDS011;33517;49.866;8.320;2024-01-30T09:53:33;13.85;;;6.07;;
12867;SDS011;33517;49.866;8.320;2024-01-30T09:56:26;12.40;;;5.05;;
12867;SDS011;33517;49.866;8.320;2024-01-30T09:59:17;7.55;;;5.00;;
12867;SDS011;33517;49.866;8.320;2024-01-30T10:02:09;12.63;;;6.90;;
12867;SDS011;33517;49.866;8.320;2024-01-30T10:05:03;11.50;;;6.00;;
12867;SDS011;33517;49.866;8.320;2024-01-30T10:07:56;5.50;;;4.13;;
12867;SDS011;33517;49.866;8.320;2024-01-30T10:10:49;5.20;;;3.90;;
12867;SDS011;33517;49.866;8.320;2024-01-30T10:13:41;6.53;;;4.25;;
12867;SDS011;33517;49.866;8.320;2024-01-30T10:16:34;5.10;;;3.72;;
12867;SDS011;33517;49.866;8.320;2024-01-30T10:19:26;7.00;;;4.57;;
12867;SDS011;33517;49.866;8.320;2024-01-30T10:22:19;11.27;;;6.65;;
12867;SDS011;33517;49.866;8.320;2024-01-30T10:25:11;9.05;;;5.47;;
12867;SDS011;33517;49.866;8.320;2024-01-30T10:28:04;5.20;;;4.57;;
12867;SDS011;33517;49.866;8.320;2024-01-30T10:30:59;4.40;;;3.53;;
12867;SDS011;33517;49.866;8.320;2024-01-30T10:33:51;9.52;;;4.72;;
12867;SDS011;33517;49.866;8.320;2024-01-30T10:36:43;7.53;;;5.07;;
12867;SDS011;33517;49.866;8.320;2024-01-30T10:39:43;4.90;;;3.67;;
12867;SDS011;33517;49.866;8.320;2024-01-30T10:42:36;8.73;;;5.53;;
12867;SDS011;33517;49.866;8.320;2024-01-30T10:45:28;8.90;;;5.13;;
12867;SDS011;33517;49.866;8.320;2024-01-30T10:48:22;5.57;;;4.20;;
12867;SDS011;33517;49.866;8.320;2024-01-30T10:51:20;7.15;;;4.82;;
12867;SDS011;33517;49.866;8.320;2024-01-30T10:54:13;6.78;;;5.18;;
12867;SDS011;33517;49.866;8.320;2024-01-30T10:57:08;9.93;;;5.18;;
12867;SDS011;33517;49.866;8.320;2024-01-30T11:00:03;6.93;;;4.30;;
12867;SDS011;33517;49.866;8.320;2024-01-30T11:03:00;5.53;;;3.88;;
12867;SDS011;33517;49.866;8.320;2024-01-30T11:05:52;8.50;;;4.45;;
12867;SDS011;33517;49.866;8.320;2024-01-30T11:08:44;5.53;;;4.32;;
12867;SDS011;33517;49.866;8.320;2024-01-30T11:11:47;6.63;;;4.90;;
12867;SDS011;33517;49.866;8.320;2024-01-30T11:14:41;4.10;;;3.42;;
12867;SDS011;33517;49.866;8.320;2024-01-30T11:17:43;6.18;;;4.90;;
12867;SDS011;33517;49.866;8.320;2024-01-30T11:20:36;9.15;;;4.22;;
12867;SDS011;33517;49.866;8.320;2024-01-30T11:23:30;6.10;;;4.55;;
12867;SDS011;33517;49.866;8.320;2024-01-30T11:26:23;9.25;;;5.35;;
12867;SDS011;33517;49.866;8.320;2024-01-30T11:29:19;5.93;;;4.10;;
12867;SDS011;33517;49.866;8.320;2024-01-30T11:32:21;4.28;;;3.42;;
12867;SDS011;33517;49.866;8.320;2024-01-30T11:35:14;3.67;;;3.38;;
12867;SDS011;33517;49.866;8.320;2024-01-30T11:38:07;7.32;;;3.92;;
12867;SDS011;33517;49.866;8.320;2024-01-30T11:41:00;5.00;;;3.67;;
12867;SDS011;33517;49.866;8.320;2024-01-30T11:43:53;5.40;;;3.95;;
12867;SDS011;33517;49.866;8.320;2024-01-30T11:46:45;6.43;;;4.53;;
12867;SDS011;33517;49.866;8.320;2024-01-30T11:49:39;4.63;;;3.60;;
12867;SDS011;33517;49.866;8.320;2024-01-30T11:52:31;7.32;;;4.82;;
12867;SDS011;33517;49.866;8.320;2024-01-30T11:55:23;10.48;;;4.25;;
12867;SDS011;33517;49.866;8.320;2024-01-30T11:58:15;14.07;;;4.65;;
12867;SDS011;33517;49.866;8.320;2024-01-30T12:01:07;5.88;;;4.10;;
12867;SDS011;33517;49.866;8.320;2024-01-30T12:03:59;8.82;;;4.85;;
12867;SDS011;33517;49.866;8.320;2024-01-30T12:06:52;8.85;;;4.75;;
12867;SDS011;33517;49.866;8.320;2024-01-30T12:09:51;7.20;;;4.25;;
12867;SDS011;33517;49.866;8.320;2024-01-30T12:12:44;5.78;;;4.68;;
12867;SDS011;33517;49.866;8.320;2024-01-30T12:15:37;9.52;;;5.15;;
12867;SDS011;33517;49.866;8.320;2024-01-30T12:18:29;9.13;;;5.32;;
12867;SDS011;33517;49.866;8.320;2024-01-30T12:21:21;7.75;;;5.03;;
12867;SDS011;33517;49.866;8.320;2024-01-30T12:24:15;6.85;;;4.93;;
12867;SDS011;33517;49.866;8.320;2024-01-30T12:27:07;14.52;;;5.22;;
12867;SDS011;33517;49.866;8.320;2024-01-30T12:29:59;8.10;;;5.43;;
12867;SDS011;33517;49.866;8.320;2024-01-30T12:32:51;14.10;;;5.22;;
12867;SDS011;33517;49.866;8.320;2024-01-30T12:35:45;12.30;;;5.25;;
12867;SDS011;33517;49.866;8.320;2024-01-30T12:38:38;13.55;;;5.53;;
12867;SDS011;33517;49.866;8.320;2024-01-30T12:41:31;9.35;;;4.85;;
12867;SDS011;33517;49.866;8.320;2024-01-30T12:44:23;16.27;;;9.63;;
12867;SDS011;33517;49.866;8.320;2024-01-30T12:47:15;20.05;;;10.68;;
12867;SDS011;33517;49.866;8.320;2024-01-30T12:50:07;10.75;;;5.30;;
12867;SDS011;33517;49.866;8.320;2024-01-30T12:53:00;27.55;;;12.38;;
12867;SDS011;33517;49.866;8.320;2024-01-30T12:55:52;15.23;;;7.22;;
12867;SDS011;33517;49.866;8.320;2024-01-30T12:58:46;8.18;;;5.18;;
12867;SDS011;33517;49.866;8.320;2024-01-30T13:01:37;11.90;;;5.82;;
12867;SDS011;33517;49.866;8.320;2024-01-30T13:04:29;9.68;;;5.90;;
12867;SDS011;33517;49.866;8.320;2024-01-30T13:07:21;15.13;;;6.93;;
12867;SDS011;33517;49.866;8.320;2024-01-30T13:10:13;7.70;;;4.13;;
12867;SDS011;33517;49.866;8.320;2024-01-30T13:13:05;7.20;;;4.20;;
12867;SDS011;33517;49.866;8.320;2024-01-30T13:15:58;12.10;;;6.63;;
12867;SDS011;33517;49.866;8.320;2024-01-30T13:18:50;13.35;;;6.80;;
12867;SDS011;33517;49.866;8.320;2024-01-30T13:21:42;7.30;;;4.32;;
12867;SDS011;33517;49.866;8.320;2024-01-30T13:24:34;10.63;;;5.32;;
12867;SDS011;33517;49.866;8.320;2024-01-30T13:27:26;5.68;;;3.88;;
12867;SDS011;33517;49.866;8.320;2024-01-30T13:30:18;7.53;;;4.68;;
12867;SDS011;33517;49.866;8.320;2024-01-30T13:33:11;9.35;;;3.75;;
12867;SDS011;33517;49.866;8.320;2024-01-30T13:36:03;12.88;;;5.97;;
12867;SDS011;33517;49.866;8.320;2024-01-30T13:38:55;5.57;;;3.75;;
12867;SDS011;33517;49.866;8.320;2024-01-30T13:41:48;16.92;;;4.22;;
12867;SDS011;33517;49.866;8.320;2024-01-30T13:44:40;5.47;;;3.80;;
12867;SDS011;33517;49.866;8.320;2024-01-30T13:47:34;9.80;;;4.72;;
12867;SDS011;33517;49.866;8.320;2024-01-30T13:50:27;9.52;;;4.40;;
12867;SDS011;33517;49.866;8.320;2024-01-30T13:53:19;7.95;;;4.28;;
12867;SDS011;33517;49.866;8.320;2024-01-30T13:56:11;4.80;;;3.40;;
12867;SDS011;33517;49.866;8.320;2024-01-30T13:59:03;5.05;;;3.95;;
12867;SDS011;33517;49.866;8.320;2024-01-30T14:01:55;3.20;;;2.75;;
12867;SDS011;33517;49.866;8.320;2024-01-30T14:04:47;5.47;;;3.13;;
12867;SDS011;33517;49.866;8.320;2024-01-30T14:07:41;8.70;;;4.80;;
12867;SDS011;33517;49.866;8.320;2024-01-30T14:10:34;8.43;;;5.72;;
12867;SDS011;33517;49.866;8.320;2024-01-30T14:13:26;19.95;;;9.48;;
12867;SDS011;33517;49.866;8.320;2024-01-30T14:16:18;8.98;;;5.30;;
12867;SDS011;33517;49.866;8.320;2024-01-30T14:19:10;6.18;;;4.00;;
12867;SDS011;33517;49.866;8.320;2024-01-30T14:22:02;18.23;;;9.77;;
12867;SDS011;33517;49.866;8.320;2024-01-30T14:24:55;17.10;;;9.07;;
12867;SDS011;33517;49.866;8.320;2024-01-30T14:27:47;25.75;;;10.15;;
12867;SDS011;33517;49.866;8.320;2024-01-30T14:30:39;19.25;;;9.25;;
12867;SDS011;33517;49.866;8.320;2024-01-30T14:33:31;14.80;;;9.32;;
12867;SDS011;33517;49.866;8.320;2024-01-30T14:36:23;8.80;;;6.20;;
12867;SDS011;33517;49.866;8.320;2024-01-30T14:39:18;8.18;;;5.78;;
12867;SDS011;33517;49.866;8.320;2024-01-30T14:42:11;11.05;;;5.78;;
12867;SDS011;33517;49.866;8.320;2024-01-30T14:45:04;6.38;;;4.15;;
12867;SDS011;33517;49.866;8.320;2024-01-30T14:47:57;6.18;;;4.30;;
12867;SDS011;33517;49.866;8.320;2024-01-30T14:50:50;8.50;;;4.53;;
12867;SDS011;33517;49.866;8.320;2024-01-30T14:53:41;6.82;;;4.63;;
12867;SDS011;33517;49.866;8.320;2024-01-30T14:56:33;11.20;;;5.55;;
12867;SDS011;33517;49.866;8.320;2024-01-30T14:59:27;11.80;;;6.13;;
12867;SDS011;33517;49.866;8.320;2024-01-30T15:02:19;7.35;;;4.30;;
12867;SDS011;33517;49.866;8.320;2024-01-30T15:05:11;3.58;;;2.63;;
12867;SDS011;33517;49.866;8.320;2024-01-30T15:08:03;6.65;;;4.60;;
12867;SDS011;33517;49.866;8.320;2024-01-30T15:10:55;8.20;;;4.43;;
12867;SDS011;33517;49.866;8.320;2024-01-30T15:13:47;4.22;;;3.00;;
12867;SDS011;33517;49.866;8.320;2024-01-30T15:16:41;5.07;;;3.35;;
12867;SDS011;33517;49.866;8.320;2024-01-30T15:19:33;5.15;;;2.55;;
12867;SDS011;33517;49.866;8.320;2024-01-30T15:22:25;5.90;;;3.42;;
12867;SDS011;33517;49.866;8.320;2024-01-30T15:25:18;5.90;;;3.53;;
12867;SDS011;33517;49.866;8.320;2024-01-30T15:28:10;5.13;;;3.45;;
12867;SDS011;33517;49.866;8.320;2024-01-30T15:31:02;7.07;;;3.33;;
12867;SDS011;33517;49.866;8.320;2024-01-30T15:33:56;7.57;;;4.07;;
12867;SDS011;33517;49.866;8.320;2024-01-30T15:36:48;3.92;;;2.95;;
12867;SDS011;33517;49.866;8.320;2024-01-30T15:39:40;5.38;;;3.88;;
12867;SDS011;33517;49.866;8.320;2024-01-30T15:42:32;7.93;;;4.53;;
12867;SDS011;33517;49.866;8.320;2024-01-30T15:45:24;4.85;;;2.72;;
12867;SDS011;33517;49.866;8.320;2024-01-30T15:48:16;3.20;;;2.90;;
12867;SDS011;33517;49.866;8.320;2024-01-30T15:51:09;5.20;;;3.58;;
12867;SDS011;33517;49.866;8.320;2024-01-30T15:54:01;4.03;;;3.03;;
12867;SDS011;33517;49.866;8.320;2024-01-30T15:56:53;8.63;;;3.97;;
12867;SDS011;33517;49.866;8.320;2024-01-30T15:59:45;8.52;;;4.20;;
12867;SDS011;33517;49.866;8.320;2024-01-30T16:02:37;5.03;;;3.83;;
12867;SDS011;33517;49.866;8.320;2024-01-30T16:05:29;8.32;;;4.28;;
12867;SDS011;33517;49.866;8.320;2024-01-30T16:08:22;8.20;;;4.65;;
12867;SDS011;33517;49.866;8.320;2024-01-30T16:11:15;4.72;;;3.55;;
12867;SDS011;33517;49.866;8.320;2024-01-30T16:14:08;12.75;;;6.90;;
12867;SDS011;33517;49.866;8.320;2024-01-30T16:17:00;11.07;;;4.50;;
12867;SDS011;33517;49.866;8.320;2024-01-30T16:19:52;7.32;;;3.42;;
12867;SDS011;33517;49.866;8.320;2024-01-30T16:22:43;7.38;;;4.15;;
12867;SDS011;33517;49.866;8.320;2024-01-30T16:25:37;10.95;;;6.30;;
12867;SDS011;33517;49.866;8.320;2024-01-30T16:28:29;6.15;;;3.90;;
12867;SDS011;33517;49.866;8.320;2024-01-30T16:31:20;4.47;;;3.65;;
12867;SDS011;33517;49.866;8.320;2024-01-30T16:34:12;9.10;;;5.60;;
12867;SDS011;33517;49.866;8.320;2024-01-30T16:37:04;20.02;;;4.95;;
12867;SDS011;33517;49.866;8.320;2024-01-30T16:39:56;9.68;;;4.90;;
12867;SDS011;33517;49.866;8.320;2024-01-30T16:42:50;13.00;;;5.05;;
12867;SDS011;33517;49.866;8.320;2024-01-30T16:45:41;15.80;;;7.05;;
12867;SDS011;33517;49.866;8.320;2024-01-30T16:48:33;8.43;;;5.35;;
12867;SDS011;33517;49.866;8.320;2024-01-30T16:51:26;9.95;;;4.68;;
12867;SDS011;33517;49.866;8.320;2024-01-30T16:54:17;13.25;;;6.15;;
12867;SDS011;33517;49.866;8.320;2024-01-30T16:57:09;8.35;;;5.38;;
12867;SDS011;33517;49.866;8.320;2024-01-30T17:00:03;11.75;;;6.07;;
12867;SDS011;33517;49.866;8.320;2024-01-30T17:02:56;10.85;;;5.55;;
12867;SDS011;33517;49.866;8.320;2024-01-30T17:05:48;13.27;;;5.32;;
12867;SDS011;33517;49.866;8.320;2024-01-30T17:08:44;11.88;;;6.85;;
12867;SDS011;33517;49.866;8.320;2024-01-30T17:11:36;7.97;;;4.18;;
12867;SDS011;33517;49.866;8.320;2024-01-30T17:14:28;9.27;;;5.30;;
12867;SDS011;33517;49.866;8.320;2024-01-30T17:17:21;13.10;;;5.85;;
12867;SDS011;33517;49.866;8.320;2024-01-30T17:20:13;16.38;;;6.50;;
12867;SDS011;33517;49.866;8.320;2024-01-30T17:23:05;7.97;;;5.50;;